createdAt,value
2022-09-16T00:00:50.648Z,12.69
2022-09-16T00:03:17.585Z,11.35
2022-09-16T00:08:35.549Z,12.81
2022-09-16T00:11:02.915Z,12.68
2022-09-16T00:13:29.536Z,12.70
2022-09-16T00:15:56.250Z,12.73
2022-09-16T00:18:23.138Z,12.51
2022-09-16T00:20:50.749Z,12.50
2022-09-16T00:23:17.848Z,12.55
2022-09-16T00:25:44.435Z,12.63
2022-09-16T00:28:11.033Z,12.90
2022-09-16T00:30:37.702Z,12.79
2022-09-16T00:33:04.278Z,12.59
2022-09-16T00:35:30.893Z,12.30
2022-09-16T00:37:57.502Z,12.93
2022-09-16T00:40:24.316Z,12.48
2022-09-16T00:42:50.990Z,11.98
2022-09-16T00:45:19.532Z,11.47
2022-09-16T00:47:57.903Z,12.89
2022-09-16T00:50:44.387Z,13.01
2022-09-16T00:53:13.825Z,12.75
2022-09-16T00:55:40.579Z,12.54
2022-09-16T00:58:22.312Z,12.64
2022-09-16T01:00:49.371Z,12.93
2022-09-16T01:03:16.182Z,12.76
2022-09-16T01:05:42.774Z,12.75
2022-09-16T01:08:09.420Z,12.71
2022-09-16T01:10:36.014Z,12.86
2022-09-16T01:13:07.284Z,12.97
2022-09-16T01:15:55.832Z,12.24
2022-09-16T01:18:38.252Z,12.21
2022-09-16T01:21:33.970Z,12.93
2022-09-16T01:24:07.828Z,12.89
2022-09-16T01:27:25.536Z,12.85
2022-09-16T01:30:04.397Z,12.85
2022-09-16T01:32:48.026Z,12.33
2022-09-16T01:36:02.348Z,12.84
2022-09-16T01:38:42.616Z,12.61
2022-09-16T01:41:21.300Z,12.80
2022-09-16T01:44:08.851Z,12.84
2022-09-16T01:47:04.257Z,12.15
2022-09-16T01:49:39.837Z,12.80
2022-09-16T01:52:18.620Z,12.80
2022-09-16T01:55:05.460Z,12.41
2022-09-16T01:57:56.597Z,12.75
2022-09-16T02:00:23.326Z,12.33
2022-09-16T02:03:03.467Z,12.76
2022-09-16T02:05:46.129Z,12.56
2022-09-16T02:08:13.697Z,11.94
2022-09-16T02:10:45.279Z,12.30
2022-09-16T02:13:17.158Z,12.68
2022-09-16T02:15:43.735Z,11.54
2022-09-16T02:18:11.999Z,12.66
2022-09-16T02:20:41.721Z,12.74
2022-09-16T02:23:22.915Z,12.35
2022-09-16T02:25:49.713Z,12.50
2022-09-16T02:28:20.069Z,12.47
2022-09-16T02:30:49.228Z,11.52
2022-09-16T02:33:16.442Z,11.81
2022-09-16T02:35:43.159Z,12.27
2022-09-16T02:38:12.489Z,12.65
2022-09-16T02:40:43.967Z,12.49
2022-09-16T02:43:10.607Z,12.16
2022-09-16T02:46:17.568Z,12.26
2022-09-16T02:49:14.709Z,12.52
2022-09-16T02:52:20.603Z,12.46
2022-09-16T02:54:49.309Z,12.42
2022-09-16T02:57:15.880Z,12.07
2022-09-16T02:59:42.474Z,12.16
2022-09-16T03:02:09.100Z,12.08
2022-09-16T03:04:36.286Z,12.03
2022-09-16T03:07:06.784Z,11.84
2022-09-16T03:09:34.858Z,11.41
2022-09-16T03:12:04.277Z,11.94
2022-09-16T03:14:49.501Z,11.87
2022-09-16T03:17:25.153Z,11.83
2022-09-16T03:20:16.224Z,11.79
2022-09-16T03:22:51.433Z,11.84
2022-09-16T03:25:34.719Z,11.85
2022-09-16T03:28:10.240Z,11.62
2022-09-16T03:30:40.022Z,11.41
2022-09-16T03:33:31.772Z,11.29
2022-09-16T03:35:59.614Z,11.42
2022-09-16T03:38:26.228Z,11.13
2022-09-16T03:40:52.850Z,11.50
2022-09-16T03:43:19.432Z,10.98
2022-09-16T03:45:46.062Z,11.10
2022-09-16T03:48:13.143Z,11.13
2022-09-16T03:50:39.845Z,11.01
2022-09-16T03:53:06.508Z,10.92
2022-09-16T03:55:33.372Z,9.84
2022-09-16T03:57:59.974Z,11.00
2022-09-16T04:00:26.675Z,10.41
2022-09-16T04:02:53.328Z,10.67
2022-09-16T04:05:19.963Z,9.28
2022-09-16T04:07:49.241Z,10.30
2022-09-16T04:10:15.925Z,9.25
2022-09-16T04:12:42.528Z,9.95
2022-09-16T04:15:09.563Z,10.05
2022-09-16T04:17:36.125Z,10.03
2022-09-16T04:20:03.067Z,10.19
2022-09-16T04:22:30.759Z,9.80
2022-09-16T04:24:57.647Z,9.47
2022-09-16T04:27:24.432Z,9.93
2022-09-16T04:29:51.022Z,9.99
2022-09-16T04:32:17.591Z,10.30
2022-09-16T04:34:44.170Z,10.29
2022-09-16T04:37:10.804Z,10.10
2022-09-16T04:39:37.362Z,9.89
2022-09-16T04:42:05.555Z,10.30
2022-09-16T04:44:32.124Z,10.35
2022-09-16T04:46:58.675Z,10.66
2022-09-16T04:49:25.347Z,10.40
2022-09-16T04:51:52.343Z,10.17
2022-09-16T04:54:19.231Z,10.92
2022-09-16T04:56:46.813Z,10.53
2022-09-16T04:59:13.477Z,9.20
2022-09-16T05:01:40.489Z,10.94
2022-09-16T05:04:07.622Z,10.82
2022-09-16T05:06:36.138Z,9.50
2022-09-16T05:09:03.330Z,10.79
2022-09-16T05:11:32.251Z,11.33
2022-09-16T05:13:59.094Z,11.11
2022-09-16T05:16:25.750Z,11.12
2022-09-16T05:18:54.648Z,11.18
2022-09-16T05:21:22.074Z,11.09
2022-09-16T05:23:48.808Z,11.54
2022-09-16T05:26:26.081Z,11.82
2022-09-16T05:28:52.710Z,11.18
2022-09-16T05:31:23.293Z,12.00
2022-09-16T05:34:00.577Z,11.69
2022-09-16T05:36:28.271Z,11.82
2022-09-16T05:39:21.003Z,11.81
2022-09-16T05:41:41.493Z,12.01
2022-09-16T05:44:08.189Z,12.22
2022-09-16T05:46:35.119Z,11.24
2022-09-16T05:49:01.983Z,11.88
2022-09-16T05:51:28.572Z,12.20
2022-09-16T05:53:55.545Z,10.82
2022-09-16T05:56:25.668Z,12.32
2022-09-16T05:58:56.773Z,11.69
2022-09-16T06:01:26.027Z,12.45
2022-09-16T06:03:52.701Z,12.04
2022-09-16T06:06:28.059Z,12.76
2022-09-16T06:08:59.122Z,12.61
2022-09-16T06:11:26.473Z,13.36
2022-09-16T06:13:57.050Z,12.85
2022-09-16T06:16:25.933Z,12.96
2022-09-16T06:18:53.497Z,13.32
2022-09-16T06:21:20.225Z,13.15
2022-09-16T06:23:46.794Z,13.04
2022-09-16T06:26:15.792Z,12.94
2022-09-16T06:28:42.475Z,13.32
2022-09-16T06:31:14.261Z,12.99
2022-09-16T06:33:41.014Z,13.56
2022-09-16T06:36:08.704Z,13.07
2022-09-16T06:38:35.286Z,11.88
2022-09-16T06:41:02.789Z,13.34
2022-09-16T06:43:29.743Z,13.29
2022-09-16T06:45:58.469Z,13.81
2022-09-16T06:48:26.798Z,13.53
2022-09-16T06:51:04.868Z,13.62
2022-09-16T06:53:31.540Z,13.55
2022-09-16T06:56:02.002Z,14.03
2022-09-16T06:58:31.825Z,13.17
2022-09-16T07:00:58.520Z,12.53
2022-09-16T07:03:25.373Z,13.95
2022-09-16T07:05:57.013Z,13.99
2022-09-16T07:08:23.769Z,13.68
2022-09-16T07:11:00.558Z,14.12
2022-09-16T07:13:27.444Z,14.27
2022-09-16T07:16:12.411Z,13.95
2022-09-16T07:18:40.145Z,14.09
2022-09-16T07:21:11.209Z,14.16
2022-09-16T07:23:38.533Z,13.77
2022-09-16T07:26:10.471Z,13.86
2022-09-16T07:28:37.310Z,13.33
2022-09-16T07:31:05.703Z,13.98
2022-09-16T07:33:33.463Z,13.95
2022-09-16T07:36:01.309Z,14.30
2022-09-16T07:38:28.934Z,14.28
2022-09-16T07:40:55.770Z,14.11
2022-09-16T07:43:22.341Z,12.39
2022-09-16T07:45:56.532Z,13.68
2022-09-16T07:48:29.177Z,14.14
2022-09-16T07:50:59.060Z,14.16
2022-09-16T07:53:29.485Z,13.39
2022-09-16T07:55:57.029Z,14.32
2022-09-16T07:58:23.705Z,14.20
2022-09-16T08:00:50.370Z,13.64
2022-09-16T08:03:17.951Z,13.68
2022-09-16T08:05:44.646Z,14.13
2022-09-16T08:08:11.187Z,13.96
2022-09-16T08:10:37.895Z,13.88
2022-09-16T08:13:05.243Z,13.80
2022-09-16T08:15:31.890Z,13.77
2022-09-16T08:17:58.723Z,12.56
2022-09-16T08:20:26.420Z,13.87
2022-09-16T08:22:57.428Z,13.61
2022-09-16T08:25:24.660Z,13.85
2022-09-16T08:27:59.457Z,14.08
2022-09-16T08:30:26.068Z,14.47
2022-09-16T08:32:57.441Z,14.37
2022-09-16T08:35:24.386Z,13.96
2022-09-16T08:37:51.291Z,13.68
2022-09-16T08:43:09.996Z,14.60
2022-09-16T08:45:44.410Z,14.35
2022-09-16T08:48:29.812Z,14.75
2022-09-16T08:50:57.094Z,14.73
2022-09-16T08:53:37.101Z,14.78
2022-09-16T08:56:05.962Z,14.60
2022-09-16T08:58:47.603Z,14.43
2022-09-16T09:01:31.625Z,14.47
2022-09-16T09:03:58.646Z,14.14
2022-09-16T09:06:40.413Z,14.88
2022-09-16T09:09:26.267Z,14.92
2022-09-16T09:12:08.717Z,14.97
2022-09-16T09:14:46.340Z,14.74
2022-09-16T09:17:51.449Z,14.48
2022-09-16T09:20:39.922Z,15.14
2022-09-16T09:23:25.255Z,15.16
2022-09-16T09:25:54.947Z,15.17
2022-09-16T09:28:40.590Z,15.23
2022-09-16T09:31:16.184Z,15.25
2022-09-16T09:34:03.046Z,15.24
2022-09-16T09:36:35.760Z,15.21
2022-09-16T09:39:39.733Z,15.23
2022-09-16T09:42:16.594Z,14.99
2022-09-16T09:44:53.401Z,14.12
2022-09-16T09:47:34.412Z,15.38
2022-09-16T09:50:10.992Z,15.31
2022-09-16T09:52:46.429Z,15.17
2022-09-16T09:55:21.149Z,15.71
2022-09-16T09:57:50.919Z,15.95
2022-09-16T10:00:18.676Z,15.71
2022-09-16T10:02:49.591Z,16.17
2022-09-16T10:05:24.971Z,15.58
2022-09-16T10:07:51.739Z,16.43
2022-09-16T10:10:26.235Z,15.86
2022-09-16T10:12:52.893Z,16.32
2022-09-16T10:15:23.280Z,16.59
2022-09-16T10:17:51.079Z,16.39
2022-09-16T10:20:38.815Z,16.21
2022-09-16T10:23:13.011Z,16.40
2022-09-16T10:25:39.697Z,16.15
2022-09-16T10:28:18.878Z,16.14
2022-09-16T10:30:48.596Z,15.92
2022-09-16T10:33:25.201Z,15.95
2022-09-16T10:36:03.445Z,14.71
2022-09-16T10:39:04.941Z,16.08
2022-09-16T10:41:46.404Z,16.53
2022-09-16T10:44:18.685Z,16.25
2022-09-16T10:47:02.446Z,15.60
2022-09-16T10:49:38.898Z,16.60
2022-09-16T10:52:27.911Z,16.25
2022-09-16T10:54:54.906Z,16.03
2022-09-16T10:57:29.096Z,17.03
2022-09-16T11:00:18.583Z,17.18
2022-09-16T11:03:02.266Z,17.27
2022-09-16T11:05:51.955Z,17.21
2022-09-16T11:08:46.871Z,16.84
2022-09-16T11:11:27.509Z,17.33
2022-09-16T11:14:11.850Z,17.28
2022-09-16T11:16:56.601Z,17.59
2022-09-16T11:19:51.955Z,17.11
2022-09-16T11:22:46.625Z,17.58
2022-09-16T11:25:50.855Z,17.87
2022-09-16T11:28:58.998Z,18.03
2022-09-16T11:31:47.376Z,18.11
2022-09-16T11:34:33.044Z,18.17
2022-09-16T11:36:59.555Z,18.27
2022-09-16T11:39:45.212Z,18.18
2022-09-16T11:42:34.650Z,18.28
2022-09-16T11:45:23.086Z,18.25
2022-09-16T11:48:22.415Z,18.11
2022-09-16T11:51:11.815Z,17.59
2022-09-16T11:54:01.150Z,17.63
2022-09-16T11:56:43.039Z,17.12
2022-09-16T11:59:19.184Z,17.35
2022-09-16T12:01:52.906Z,17.21
2022-09-16T12:04:37.692Z,16.85
2022-09-16T12:07:25.794Z,17.14
2022-09-16T12:09:55.996Z,17.16
2022-09-16T12:12:37.478Z,17.29
2022-09-16T12:15:49.693Z,17.43
2022-09-16T12:18:37.778Z,17.77
2022-09-16T12:21:10.464Z,17.81
2022-09-16T12:23:42.064Z,17.46
2022-09-16T12:26:38.366Z,17.80
2022-09-16T12:29:14.955Z,17.74
2022-09-16T12:31:57.116Z,17.55
2022-09-16T12:34:37.151Z,17.15
2022-09-16T12:37:09.841Z,17.63
2022-09-16T12:39:36.443Z,17.49
2022-09-16T12:42:18.073Z,17.71
2022-09-16T12:45:23.590Z,17.67
2022-09-16T12:47:59.170Z,17.52
2022-09-16T12:50:56.183Z,16.78
2022-09-16T12:53:50.895Z,17.07
2022-09-16T12:56:20.387Z,16.87
2022-09-16T12:59:12.718Z,16.35
2022-09-16T13:01:41.193Z,15.71
2022-09-16T13:04:14.012Z,16.35
2022-09-16T13:06:45.819Z,15.59
2022-09-16T13:09:26.864Z,15.65
2022-09-16T13:12:35.441Z,16.08
2022-09-16T13:14:58.196Z,15.91
2022-09-16T13:17:42.916Z,14.72
2022-09-16T13:20:13.405Z,15.92
2022-09-16T13:23:03.763Z,15.55
2022-09-16T13:25:36.444Z,15.95
2022-09-16T13:28:02.933Z,15.90
2022-09-16T13:30:32.190Z,15.18
2022-09-16T13:33:03.897Z,14.60
2022-09-16T13:35:40.486Z,15.73
2022-09-16T13:38:19.187Z,15.70
2022-09-16T13:40:58.803Z,15.72
2022-09-16T13:43:32.836Z,15.41
2022-09-16T13:46:10.372Z,15.60
2022-09-16T13:48:46.402Z,15.79
2022-09-16T13:51:20.314Z,15.08
2022-09-16T13:53:48.500Z,15.44
2022-09-16T13:56:34.416Z,16.16
2022-09-16T13:59:34.597Z,16.02
2022-09-16T14:02:31.125Z,16.15
2022-09-16T14:05:00.767Z,16.20
2022-09-16T14:07:39.605Z,16.08
2022-09-16T14:10:21.608Z,16.02
2022-09-16T14:13:10.354Z,15.82
2022-09-16T14:15:39.415Z,15.40
2022-09-16T14:18:06.059Z,15.42
2022-09-16T14:20:32.644Z,15.55
2022-09-16T14:23:04.073Z,14.63
2022-09-16T14:25:36.346Z,15.12
2022-09-16T14:28:10.239Z,15.26
2022-09-16T14:30:36.822Z,14.96
2022-09-16T14:33:03.398Z,14.73
2022-09-16T14:35:30.008Z,14.94
2022-09-16T14:38:00.098Z,14.53
2022-09-16T14:40:26.738Z,14.02
2022-09-16T14:42:58.454Z,14.86
2022-09-16T14:45:25.030Z,14.55
2022-09-16T14:47:53.005Z,14.64
2022-09-16T14:50:24.959Z,14.32
2022-09-16T14:53:35.902Z,14.98
2022-09-16T14:56:04.485Z,14.67
2022-09-16T14:58:31.956Z,14.76
2022-09-16T15:01:14.427Z,14.24
2022-09-16T15:03:50.810Z,14.77
2022-09-16T15:06:20.427Z,14.27
2022-09-16T15:08:53.280Z,14.41
2022-09-16T15:11:46.408Z,14.26
2022-09-16T15:14:09.879Z,14.49
2022-09-16T15:16:41.337Z,14.54
2022-09-16T15:19:21.465Z,13.43
2022-09-16T15:21:48.111Z,13.87
2022-09-16T15:24:30.955Z,14.59
2022-09-16T15:26:58.594Z,14.79
2022-09-16T15:29:25.066Z,15.09
2022-09-16T15:31:51.716Z,14.29
2022-09-16T15:34:21.192Z,15.19
2022-09-16T15:36:48.942Z,15.25
2022-09-16T15:39:26.621Z,14.85
2022-09-16T15:42:06.201Z,14.99
2022-09-16T15:44:36.967Z,15.08
2022-09-16T15:47:04.126Z,15.25
2022-09-16T15:49:31.330Z,15.20
2022-09-16T15:51:57.893Z,15.01
2022-09-16T15:54:31.235Z,15.24
2022-09-16T15:57:07.172Z,13.69
2022-09-16T15:59:47.730Z,15.03
2022-09-16T16:02:27.796Z,14.82
2022-09-16T16:04:54.388Z,14.67
2022-09-16T16:07:40.774Z,15.06
2022-09-16T16:10:17.809Z,15.02
2022-09-16T16:12:46.189Z,14.71
2022-09-16T16:15:13.864Z,14.39
2022-09-16T16:17:40.667Z,14.53
2022-09-16T16:20:07.600Z,14.53
2022-09-16T16:22:35.112Z,14.74
2022-09-16T16:25:02.293Z,14.55
2022-09-16T16:27:28.899Z,14.68
2022-09-16T16:29:55.456Z,14.21
2022-09-16T16:32:22.024Z,14.46
2022-09-16T16:34:53.044Z,14.37
2022-09-16T16:37:44.508Z,14.05
2022-09-16T16:40:06.990Z,14.20
2022-09-16T16:42:34.491Z,14.24
2022-09-16T16:45:01.087Z,14.45
2022-09-16T16:47:27.669Z,14.00
2022-09-16T16:49:54.266Z,13.94
2022-09-16T16:52:20.859Z,14.21
2022-09-16T16:54:47.733Z,13.73
2022-09-16T16:57:14.361Z,13.81
2022-09-16T16:59:40.985Z,13.98
2022-09-16T17:02:10.303Z,13.39
2022-09-16T17:04:36.975Z,13.58
2022-09-16T17:07:24.785Z,13.58
2022-09-16T17:09:50.511Z,13.56
2022-09-16T17:12:18.343Z,13.68
2022-09-16T17:14:44.958Z,13.05
2022-09-16T17:17:11.542Z,13.27
2022-09-16T17:19:38.164Z,13.16
2022-09-16T17:22:04.848Z,13.44
2022-09-16T17:24:31.556Z,13.16
2022-09-16T17:26:58.138Z,13.08
2022-09-16T17:29:28.757Z,13.51
2022-09-16T17:31:57.141Z,13.04
2022-09-16T17:34:26.508Z,12.96
2022-09-16T17:36:53.184Z,12.93
2022-09-16T17:39:20.874Z,13.21
2022-09-16T17:41:48.832Z,13.02
2022-09-16T17:44:15.704Z,12.96
2022-09-16T17:46:42.635Z,13.03
2022-09-16T17:49:14.992Z,12.79
2022-09-16T17:51:41.624Z,12.78
2022-09-16T17:54:08.847Z,12.38
2022-09-16T17:56:35.638Z,12.34
2022-09-16T17:59:02.264Z,12.04
2022-09-16T18:01:30.727Z,12.33
2022-09-16T18:03:57.801Z,12.21
2022-09-16T18:06:27.870Z,12.46
2022-09-16T18:08:55.761Z,12.49
2022-09-16T18:11:22.456Z,12.13
2022-09-16T18:13:52.363Z,12.57
2022-09-16T18:16:19.742Z,12.25
2022-09-16T18:18:46.790Z,11.39
2022-09-16T18:21:19.603Z,11.71
2022-09-16T18:23:46.980Z,11.70
2022-09-16T18:26:14.405Z,11.98
2022-09-16T18:29:08.109Z,12.51
2022-09-16T18:31:29.305Z,11.47
2022-09-16T18:33:56.412Z,12.51
2022-09-16T18:36:25.658Z,12.32
2022-09-16T18:38:53.177Z,12.28
2022-09-16T18:41:31.026Z,12.42
2022-09-16T18:43:59.412Z,12.31
2022-09-16T18:46:30.693Z,12.05
2022-09-16T18:48:57.881Z,11.68
2022-09-16T18:51:32.345Z,12.23
2022-09-16T18:54:06.300Z,12.18
2022-09-16T18:56:34.148Z,11.57
2022-09-16T18:59:20.954Z,12.00
2022-09-16T19:01:49.001Z,11.49
2022-09-16T19:04:17.241Z,12.00
2022-09-16T19:06:45.432Z,11.41
2022-09-16T19:09:13.638Z,12.07
2022-09-16T19:11:40.355Z,12.01
2022-09-16T19:14:09.474Z,12.11
2022-09-16T19:16:36.662Z,12.28
2022-09-16T19:19:05.502Z,11.11
2022-09-16T19:21:32.202Z,12.00
2022-09-16T19:24:00.426Z,12.18
2022-09-16T19:26:34.845Z,11.93
2022-09-16T19:29:01.541Z,12.00
2022-09-16T19:31:28.716Z,11.91
2022-09-16T19:33:55.713Z,12.07
2022-09-16T19:36:24.681Z,11.48
2022-09-16T19:38:51.599Z,11.87
2022-09-16T19:41:19.099Z,11.96
2022-09-16T19:43:45.998Z,12.15
2022-09-16T19:46:16.807Z,12.05
2022-09-16T19:48:45.061Z,11.73
2022-09-16T19:51:13.355Z,11.85
2022-09-16T19:53:40.569Z,11.70
2022-09-16T19:56:08.534Z,12.26
2022-09-16T19:58:36.004Z,11.88
2022-09-16T20:01:04.933Z,11.75
2022-09-16T20:03:32.417Z,11.55
2022-09-16T20:06:08.839Z,12.41
2022-09-16T20:08:40.498Z,11.73
2022-09-16T20:11:14.443Z,12.03
2022-09-16T20:13:41.275Z,11.67
2022-09-16T20:16:08.860Z,12.22
2022-09-16T20:18:35.989Z,12.06
2022-09-16T20:21:22.361Z,11.97
2022-09-16T20:23:49.108Z,11.40
2022-09-16T20:26:19.635Z,11.67
2022-09-16T20:28:51.451Z,10.58
2022-09-16T20:31:29.078Z,12.04
2022-09-16T20:33:56.052Z,12.10
2022-09-16T20:36:24.207Z,10.57
2022-09-16T20:38:50.943Z,11.33
2022-09-16T20:41:20.497Z,11.37
2022-09-16T20:43:47.238Z,11.07
2022-09-16T20:46:21.612Z,11.94
2022-09-16T20:48:48.350Z,11.48
2022-09-16T20:51:16.800Z,11.39
2022-09-16T20:53:43.711Z,11.46
2022-09-16T20:56:14.885Z,11.34
2022-09-16T20:58:42.173Z,11.67
2022-09-16T21:01:10.770Z,11.43
2022-09-16T21:03:37.562Z,11.38
2022-09-16T21:06:08.607Z,11.34
2022-09-16T21:08:37.009Z,11.28
2022-09-16T21:11:07.479Z,9.35
2022-09-16T21:13:34.611Z,10.94
2022-09-16T21:16:01.516Z,10.46
2022-09-16T21:18:28.268Z,10.53
2022-09-16T21:21:04.471Z,10.11
2022-09-16T21:23:31.889Z,9.58
2022-09-16T21:26:06.401Z,9.85
2022-09-16T21:28:34.189Z,9.89
2022-09-16T21:31:05.371Z,10.04
2022-09-16T21:33:33.923Z,8.53
2022-09-16T21:36:00.554Z,9.12
2022-09-16T21:38:27.360Z,10.18
2022-09-16T21:40:58.669Z,9.76
2022-09-16T21:43:27.220Z,9.90
2022-09-16T21:45:54.726Z,9.61
2022-09-16T21:48:21.461Z,9.85
2022-09-16T21:50:48.386Z,8.24
2022-09-16T21:53:15.244Z,9.89
2022-09-16T21:55:41.940Z,8.61
2022-09-16T21:58:08.839Z,9.58
2022-09-16T22:00:36.622Z,9.14
2022-09-16T22:03:03.283Z,9.52
2022-09-16T22:05:30.284Z,9.19
2022-09-16T22:07:57.002Z,9.04
2022-09-16T22:10:23.601Z,8.54
2022-09-16T22:12:50.154Z,9.44
2022-09-16T22:15:16.835Z,9.43
2022-09-16T22:17:43.580Z,9.73
2022-09-16T22:20:11.788Z,9.50
2022-09-16T22:22:41.340Z,9.74
2022-09-16T22:25:08.429Z,9.27
2022-09-16T22:27:34.993Z,8.55
2022-09-16T22:30:01.621Z,8.98
2022-09-16T22:32:28.598Z,8.18
2022-09-16T22:34:55.748Z,9.53
2022-09-16T22:37:22.444Z,9.33
2022-09-16T22:39:49.148Z,9.22
2022-09-16T22:42:15.755Z,9.72
2022-09-16T22:44:42.331Z,9.21
2022-09-16T22:47:09.001Z,8.47
2022-09-16T22:49:35.546Z,9.08
2022-09-16T22:52:02.300Z,9.28
2022-09-16T22:54:28.912Z,9.70
2022-09-16T22:56:55.513Z,8.85
2022-09-16T22:59:22.232Z,8.68
2022-09-16T23:01:49.233Z,10.05
2022-09-16T23:04:16.219Z,9.98
2022-09-16T23:06:43.266Z,9.68
2022-09-16T23:09:11.135Z,9.88
2022-09-16T23:11:37.777Z,9.47
2022-09-16T23:14:06.403Z,9.68
2022-09-16T23:16:35.806Z,9.23
2022-09-16T23:19:04.295Z,9.95
2022-09-16T23:21:31.374Z,9.20
2022-09-16T23:24:00.422Z,10.02
2022-09-16T23:26:29.856Z,9.89
2022-09-16T23:28:57.334Z,10.09
2022-09-16T23:31:26.258Z,9.75
2022-09-16T23:33:53.108Z,9.88
2022-09-16T23:36:20.021Z,9.44
2022-09-16T23:38:46.787Z,9.29
2022-09-16T23:41:19.560Z,9.70
2022-09-16T23:43:46.800Z,9.76
2022-09-16T23:46:18.610Z,9.22
2022-09-16T23:48:45.271Z,8.31
2022-09-16T23:51:12.079Z,7.92
2022-09-16T23:53:38.731Z,7.59
2022-09-16T23:56:09.118Z,9.50
2022-09-16T23:58:35.782Z,9.71
